createdAt,value
2022-11-27T00:02:21.194Z,101519.28
2022-11-27T00:04:47.564Z,101517.47
2022-11-27T00:07:14.027Z,101515.56
2022-11-27T00:09:40.622Z,101519.16
2022-11-27T00:12:07.354Z,101512.97
2022-11-27T00:14:33.788Z,101509.47
2022-11-27T00:17:00.949Z,101503.22
2022-11-27T00:19:27.621Z,101491.78
2022-11-27T00:21:53.969Z,101493.53
2022-11-27T00:24:20.352Z,101496.16
2022-11-27T00:26:46.797Z,101490.09
2022-11-27T00:29:13.192Z,101486.53
2022-11-27T00:31:39.654Z,101491.88
2022-11-27T00:34:08.400Z,101482.13
2022-11-27T00:36:35.514Z,101483.03
2022-11-27T00:39:02.444Z,101481.22
2022-11-27T00:41:30.387Z,101473.34
2022-11-27T00:43:57.480Z,101477.78
2022-11-27T00:46:29.034Z,101474.28
2022-11-27T00:48:57.196Z,101475.13
2022-11-27T00:51:25.031Z,101473.41
2022-11-27T00:53:52.200Z,101471.66
2022-11-27T00:56:27.951Z,101468.09
2022-11-27T00:58:54.707Z,101462.84
2022-11-27T01:01:24.091Z,101464.56
2022-11-27T01:03:50.711Z,101468.13
2022-11-27T01:06:18.618Z,101463.72
2022-11-27T01:08:45.583Z,101469.91
2022-11-27T01:11:15.658Z,101466.38
2022-11-27T01:13:42.083Z,101467.22
2022-11-27T01:16:14.424Z,101467.25
2022-11-27T01:18:42.951Z,101454.00
2022-11-27T01:21:11.432Z,101464.59
2022-11-27T01:23:37.868Z,101458.41
2022-11-27T01:26:06.946Z,101462.81
2022-11-27T01:28:34.815Z,101457.53
2022-11-27T01:31:07.047Z,101445.19
2022-11-27T01:33:34.018Z,101454.00
2022-11-27T01:36:03.815Z,101452.25
2022-11-27T01:38:31.188Z,101444.31
2022-11-27T01:41:08.697Z,101452.22
2022-11-27T01:43:38.366Z,101451.34
2022-11-27T01:46:11.087Z,101454.00
2022-11-27T01:48:37.539Z,101446.91
2022-11-27T01:51:04.492Z,101457.47
2022-11-27T01:53:30.905Z,101451.31
2022-11-27T01:56:01.066Z,101449.53
2022-11-27T01:58:30.332Z,101447.78
2022-11-27T02:00:56.772Z,101453.97
2022-11-27T02:03:23.684Z,101451.31
2022-11-27T02:05:50.157Z,101451.28
2022-11-27T02:08:17.576Z,101454.81
2022-11-27T02:11:02.956Z,101453.09
2022-11-27T02:13:35.869Z,101446.03
2022-11-27T02:16:24.214Z,101449.56
2022-11-27T02:18:50.539Z,101453.97
2022-11-27T02:21:21.300Z,101453.94
2022-11-27T02:23:58.499Z,101446.91
2022-11-27T02:26:44.359Z,101446.03
2022-11-27T02:29:17.479Z,101429.25
2022-11-27T02:32:05.962Z,101423.06
2022-11-27T02:34:51.367Z,101416.03
2022-11-27T02:37:39.520Z,101415.13
2022-11-27T02:40:14.852Z,101416.00
2022-11-27T02:42:56.161Z,101411.59
2022-11-27T02:45:31.361Z,101411.56
2022-11-27T02:47:58.538Z,101402.72
2022-11-27T02:50:27.928Z,101404.50
2022-11-27T02:52:59.698Z,101406.28
2022-11-27T02:55:29.621Z,101402.75
2022-11-27T02:57:58.536Z,101402.75
2022-11-27T03:00:25.505Z,101408.97
2022-11-27T03:02:57.588Z,101407.19
2022-11-27T03:05:30.382Z,101393.09
2022-11-27T03:08:08.142Z,101393.09
2022-11-27T03:10:51.978Z,101393.94
2022-11-27T03:13:18.668Z,101391.34
2022-11-27T03:16:16.527Z,101388.69
2022-11-27T03:19:02.763Z,101379.81
2022-11-27T03:21:53.806Z,101366.63
2022-11-27T03:24:20.264Z,101360.44
2022-11-27T03:26:46.744Z,101365.72
2022-11-27T03:29:18.108Z,101364.84
2022-11-27T03:31:44.681Z,101366.63
2022-11-27T03:34:11.548Z,101365.75
2022-11-27T03:36:37.904Z,101359.56
2022-11-27T03:39:04.864Z,101356.91
2022-11-27T03:41:39.663Z,101356.03
2022-11-27T03:44:22.424Z,101348.09
2022-11-27T03:47:30.176Z,101343.66
2022-11-27T03:50:17.383Z,101342.81
2022-11-27T03:52:46.784Z,101340.16
2022-11-27T03:55:25.374Z,101350.75
2022-11-27T03:58:05.311Z,101333.09
2022-11-27T04:00:37.534Z,101338.34
2022-11-27T04:03:04.691Z,101330.44
2022-11-27T04:05:31.202Z,101335.69
2022-11-27T04:07:57.603Z,101336.59
2022-11-27T04:10:24.108Z,101335.72
2022-11-27T04:12:50.459Z,101327.75
2022-11-27T04:15:16.961Z,101318.97
2022-11-27T04:17:43.370Z,101313.72
2022-11-27T04:20:12.143Z,101318.97
2022-11-27T04:22:38.543Z,101317.22
2022-11-27T04:25:05.239Z,101311.06
2022-11-27T04:27:31.592Z,101311.06
2022-11-27T04:29:58.004Z,101310.19
2022-11-27T04:32:24.695Z,101311.06
2022-11-27T04:34:51.080Z,101314.59
2022-11-27T04:37:17.412Z,101318.13
2022-11-27T04:39:43.764Z,101314.56
2022-11-27T04:42:10.095Z,101312.81
2022-11-27T04:44:36.615Z,101324.22
2022-11-27T04:47:03.133Z,101324.25
2022-11-27T04:49:29.616Z,101328.69
2022-11-27T04:51:56.030Z,101328.69
2022-11-27T04:54:22.608Z,101330.44
2022-11-27T04:56:48.947Z,101326.00
2022-11-27T04:59:15.356Z,101314.53
2022-11-27T05:01:41.867Z,101312.72
2022-11-27T05:04:08.240Z,101317.03
2022-11-27T05:06:34.656Z,101316.25
2022-11-27T05:09:02.109Z,101320.59
2022-11-27T05:11:31.024Z,101317.03
2022-11-27T05:14:16.962Z,101316.16
2022-11-27T05:16:52.463Z,101317.03
2022-11-27T05:19:21.224Z,101311.75
2022-11-27T05:21:49.147Z,101317.00
2022-11-27T05:24:20.179Z,101303.72
2022-11-27T05:26:47.360Z,101311.56
2022-11-27T05:29:14.644Z,101301.88
2022-11-27T05:31:41.787Z,101300.13
2022-11-27T05:34:08.604Z,101297.50
2022-11-27T05:36:35.647Z,101299.25
2022-11-27T05:39:04.641Z,101306.22
2022-11-27T05:41:30.988Z,101300.94
2022-11-27T05:43:57.366Z,101308.16
2022-11-27T05:46:23.919Z,101317.03
2022-11-27T05:48:50.547Z,101305.47
2022-11-27T05:51:17.727Z,101294.81
2022-11-27T05:53:44.505Z,101292.25
2022-11-27T05:56:14.979Z,101294.91
2022-11-27T05:58:42.581Z,101293.91
2022-11-27T06:01:10.207Z,101294.81
2022-11-27T06:03:38.896Z,101295.63
2022-11-27T06:06:10.547Z,101287.72
2022-11-27T06:08:38.212Z,101279.81
2022-11-27T06:11:09.742Z,101268.38
2022-11-27T06:13:36.599Z,101251.47
2022-11-27T06:16:07.254Z,101258.50
2022-11-27T06:18:34.126Z,101253.34
2022-11-27T06:21:00.520Z,101248.84
2022-11-27T06:23:26.951Z,101255.09
2022-11-27T06:25:53.426Z,101258.63
2022-11-27T06:28:19.803Z,101260.50
2022-11-27T06:30:46.259Z,101263.00
2022-11-27T06:33:12.608Z,101263.97
2022-11-27T06:35:38.993Z,101260.34
2022-11-27T06:38:05.556Z,101256.94
2022-11-27T06:40:31.912Z,101249.84
2022-11-27T06:42:58.237Z,101250.59
2022-11-27T06:45:24.634Z,101252.25
2022-11-27T06:47:51.026Z,101263.56
2022-11-27T06:50:17.563Z,101267.09
2022-11-27T06:52:44.047Z,101277.66
2022-11-27T06:55:12.097Z,101273.44
2022-11-27T06:57:38.419Z,101273.13
2022-11-27T07:00:05.720Z,101262.59
2022-11-27T07:02:32.091Z,101256.31
2022-11-27T07:04:58.560Z,101252.66
2022-11-27T07:07:25.001Z,101250.78
2022-11-27T07:09:51.464Z,101240.41
2022-11-27T07:12:17.844Z,101230.72
2022-11-27T07:14:44.187Z,101220.06
2022-11-27T07:17:10.607Z,101213.03
2022-11-27T07:19:36.935Z,101220.16
2022-11-27T07:22:03.401Z,101210.25
2022-11-27T07:24:29.797Z,101211.13
2022-11-27T07:26:56.178Z,101208.53
2022-11-27T07:29:22.615Z,101196.88
2022-11-27T07:31:51.354Z,101184.63
2022-11-27T07:34:21.740Z,101191.59
2022-11-27T07:36:48.492Z,101198.69
2022-11-27T07:39:25.278Z,101210.16
2022-11-27T07:42:16.777Z,101228.06
2022-11-27T07:44:46.859Z,101219.44
2022-11-27T07:47:13.257Z,101214.16
2022-11-27T07:49:39.719Z,101229.97
2022-11-27T07:52:06.588Z,101222.25
2022-11-27T07:54:32.920Z,101202.72
2022-11-27T07:56:59.246Z,101204.47
2022-11-27T07:59:26.306Z,101202.03
2022-11-27T08:01:52.788Z,101195.91
2022-11-27T08:04:20.002Z,101197.56
2022-11-27T08:06:48.845Z,101192.31
2022-11-27T08:09:15.251Z,101196.50
2022-11-27T08:11:41.887Z,101198.38
2022-11-27T08:14:08.907Z,101199.19
2022-11-27T08:16:36.092Z,101216.09
2022-11-27T08:19:03.446Z,101213.56
2022-11-27T08:21:31.079Z,101210.03
2022-11-27T08:23:58.127Z,101208.19
2022-11-27T08:26:27.452Z,101195.78
2022-11-27T08:28:54.755Z,101209.09
2022-11-27T08:31:21.887Z,101215.41
2022-11-27T08:33:48.456Z,101209.38
2022-11-27T08:36:18.153Z,101202.31
2022-11-27T08:38:45.648Z,101192.66
2022-11-27T08:41:12.004Z,101190.09
2022-11-27T08:43:38.381Z,101184.75
2022-11-27T08:46:07.078Z,101186.41
2022-11-27T08:48:33.845Z,101189.19
2022-11-27T08:51:05.778Z,101183.97
2022-11-27T08:53:32.165Z,101176.00
2022-11-27T08:56:06.154Z,101183.03
2022-11-27T08:58:32.554Z,101182.09
2022-11-27T09:00:58.981Z,101186.53
2022-11-27T09:03:25.379Z,101183.97
2022-11-27T09:05:51.900Z,101177.84
2022-11-27T09:08:21.284Z,101170.88
2022-11-27T09:10:47.692Z,101177.94
2022-11-27T09:13:14.083Z,101166.44
2022-11-27T09:15:40.842Z,101165.59
2022-11-27T09:18:12.043Z,101168.25
2022-11-27T09:20:38.384Z,101158.53
2022-11-27T09:23:05.646Z,101162.84
2022-11-27T09:25:34.326Z,101159.38
2022-11-27T09:28:01.172Z,101146.19
2022-11-27T09:30:27.554Z,101135.66
2022-11-27T09:32:53.952Z,101125.97
2022-11-27T09:35:20.970Z,101121.50
2022-11-27T09:37:47.412Z,101133.00
2022-11-27T09:40:16.863Z,101133.03
2022-11-27T09:42:50.500Z,101138.31
2022-11-27T09:45:18.260Z,101139.16
2022-11-27T09:47:59.160Z,101148.00
2022-11-27T09:50:37.087Z,101140.94
2022-11-27T09:53:27.984Z,101150.63
2022-11-27T09:55:58.676Z,101148.00
2022-11-27T09:58:46.941Z,101144.47
2022-11-27T10:01:26.098Z,101136.53
2022-11-27T10:03:55.822Z,101133.84
2022-11-27T10:06:43.852Z,101124.19
2022-11-27T10:09:25.367Z,101103.06
2022-11-27T10:11:56.423Z,101096.03
2022-11-27T10:14:28.714Z,101085.41
2022-11-27T10:17:02.720Z,101085.47
2022-11-27T10:19:43.964Z,101081.94
2022-11-27T10:22:27.286Z,101071.31
2022-11-27T10:25:20.374Z,101043.16
2022-11-27T10:28:26.420Z,101053.75
2022-11-27T10:30:58.692Z,101064.31
2022-11-27T10:33:39.588Z,101076.59
2022-11-27T10:36:13.723Z,101071.25
2022-11-27T10:38:41.779Z,101064.19
2022-11-27T10:44:29.862Z,101029.97
2022-11-27T10:47:02.773Z,101035.28
2022-11-27T10:49:29.465Z,101035.25
2022-11-27T10:51:55.875Z,101034.41
2022-11-27T10:54:27.910Z,101039.66
2022-11-27T10:57:28.988Z,101024.69
2022-11-27T11:00:09.579Z,101011.50
2022-11-27T11:02:39.513Z,101013.25
2022-11-27T11:05:37.346Z,101025.59
2022-11-27T11:08:14.846Z,101023.81
2022-11-27T11:10:52.839Z,101033.50
2022-11-27T11:13:27.239Z,101000.94
2022-11-27T11:16:01.286Z,101000.06
2022-11-27T11:18:33.760Z,101005.31
2022-11-27T11:21:02.887Z,101004.44
2022-11-27T11:23:35.607Z,100988.59
2022-11-27T11:26:23.955Z,100998.28
2022-11-27T11:28:54.182Z,100992.13
2022-11-27T11:31:23.630Z,100977.16
2022-11-27T11:33:58.654Z,100969.19
2022-11-27T11:36:25.078Z,100972.63
2022-11-27T11:38:53.198Z,100978.84
2022-11-27T11:41:20.214Z,100960.38
2022-11-27T11:44:01.371Z,100963.91
2022-11-27T11:46:32.014Z,100955.09
2022-11-27T11:49:18.154Z,100959.50
2022-11-27T11:52:21.114Z,100953.31
2022-11-27T11:54:50.468Z,100942.81
2022-11-27T11:57:39.913Z,100946.28
2022-11-27T12:00:13.603Z,100944.44
2022-11-27T12:02:42.788Z,100940.06
2022-11-27T12:05:28.117Z,100936.50
2022-11-27T12:08:03.433Z,100925.03
2022-11-27T12:10:32.915Z,100928.50
2022-11-27T12:13:20.943Z,100921.50
2022-11-27T12:15:56.213Z,100917.19
2022-11-27T12:18:31.724Z,100918.00
2022-11-27T12:21:40.071Z,100915.38
2022-11-27T12:24:39.561Z,100903.03
2022-11-27T12:27:51.273Z,100894.13
2022-11-27T12:30:58.467Z,100895.16
2022-11-27T12:33:33.779Z,100883.66
2022-11-27T12:36:37.785Z,100886.22
2022-11-27T12:39:23.605Z,100882.75
2022-11-27T12:42:23.129Z,100872.78
2022-11-27T12:44:55.687Z,100880.88
2022-11-27T12:47:41.867Z,100879.06
2022-11-27T12:50:14.287Z,100886.19
2022-11-27T12:52:46.084Z,100883.50
2022-11-27T12:55:26.735Z,100878.25
2022-11-27T12:58:00.128Z,100867.84
2022-11-27T13:00:29.389Z,100865.25
2022-11-27T13:03:18.407Z,100862.50
2022-11-27T13:05:55.147Z,100853.72
2022-11-27T13:08:21.459Z,100859.03
2022-11-27T13:10:51.520Z,100855.41
2022-11-27T13:13:24.143Z,100859.81
2022-11-27T13:15:56.267Z,100845.72
2022-11-27T13:18:44.299Z,100846.78
2022-11-27T13:21:17.348Z,100830.84
2022-11-27T13:23:44.153Z,100823.00
2022-11-27T13:26:26.687Z,100829.13
2022-11-27T13:28:58.331Z,100820.31
2022-11-27T13:31:31.045Z,100817.66
2022-11-27T13:34:05.773Z,100818.63
2022-11-27T13:36:38.991Z,100822.97
2022-11-27T13:39:06.118Z,100809.84
2022-11-27T13:41:41.540Z,100813.38
2022-11-27T13:44:25.829Z,100793.97
2022-11-27T13:46:56.418Z,100780.78
2022-11-27T13:49:36.140Z,100780.72
2022-11-27T13:52:22.499Z,100765.72
2022-11-27T13:54:57.259Z,100757.84
2022-11-27T13:57:25.195Z,100751.66
2022-11-27T13:59:58.399Z,100735.84
2022-11-27T14:02:25.973Z,100726.22
2022-11-27T14:04:56.487Z,100719.13
2022-11-27T14:07:24.415Z,100730.59
2022-11-27T14:09:58.117Z,100723.50
2022-11-27T14:12:31.862Z,100734.09
2022-11-27T14:15:23.326Z,100721.75
2022-11-27T14:17:51.921Z,100712.94
2022-11-27T14:20:18.243Z,100710.34
2022-11-27T14:23:11.135Z,100711.19
2022-11-27T14:25:38.064Z,100706.84
2022-11-27T14:28:15.872Z,100702.44
2022-11-27T14:30:49.460Z,100708.56
2022-11-27T14:33:23.044Z,100708.59
2022-11-27T14:36:00.731Z,100692.78
2022-11-27T14:38:29.130Z,100686.56
2022-11-27T14:41:10.677Z,100689.28
2022-11-27T14:43:37.340Z,100700.63
2022-11-27T14:46:05.193Z,100684.84
2022-11-27T14:48:42.515Z,100688.34
2022-11-27T14:51:15.709Z,100669.81
2022-11-27T14:53:42.596Z,100675.13
2022-11-27T14:56:09.223Z,100678.63
2022-11-27T14:58:36.271Z,100679.53
2022-11-27T15:01:06.042Z,100667.16
2022-11-27T15:03:33.474Z,100677.66
2022-11-27T15:06:05.556Z,100683.03
2022-11-27T15:08:35.811Z,100683.91
2022-11-27T15:11:04.794Z,100668.94
2022-11-27T15:13:34.145Z,100668.16
2022-11-27T15:16:07.143Z,100678.59
2022-11-27T15:18:37.158Z,100673.38
2022-11-27T15:21:10.829Z,100659.34
2022-11-27T15:23:38.352Z,100650.59
2022-11-27T15:26:15.201Z,100656.69
2022-11-27T15:28:49.259Z,100644.41
2022-11-27T15:31:37.163Z,100635.63
2022-11-27T15:34:05.309Z,100645.34
2022-11-27T15:36:43.972Z,100636.50
2022-11-27T15:39:21.357Z,100640.09
2022-11-27T15:42:14.770Z,100624.22
2022-11-27T15:44:41.338Z,100626.84
2022-11-27T15:47:23.181Z,100620.66
2022-11-27T15:49:50.331Z,100624.97
2022-11-27T15:52:16.783Z,100620.63
2022-11-27T15:54:43.532Z,100629.50
2022-11-27T15:57:10.548Z,100643.41
2022-11-27T15:59:36.897Z,100653.72
2022-11-27T16:02:03.467Z,100642.22
2022-11-27T16:04:30.015Z,100637.91
2022-11-27T16:06:56.407Z,100640.63
2022-11-27T16:09:22.945Z,100639.72
2022-11-27T16:11:49.420Z,100635.28
2022-11-27T16:14:15.847Z,100639.59
2022-11-27T16:16:42.549Z,100623.94
2022-11-27T16:19:12.060Z,100627.59
2022-11-27T16:21:38.627Z,100625.81
2022-11-27T16:24:06.665Z,100619.69
2022-11-27T16:26:33.221Z,100617.09
2022-11-27T16:28:59.698Z,100616.28
2022-11-27T16:31:27.040Z,100617.00
2022-11-27T16:33:53.515Z,100609.97
2022-11-27T16:36:21.162Z,100607.19
2022-11-27T16:38:48.400Z,100609.06
2022-11-27T16:41:18.291Z,100596.03
2022-11-27T16:43:49.764Z,100593.34
2022-11-27T16:46:19.720Z,100584.63
2022-11-27T16:48:47.508Z,100586.28
2022-11-27T16:51:25.792Z,100585.41
2022-11-27T16:53:56.416Z,100571.31
2022-11-27T16:56:25.629Z,100562.50
2022-11-27T16:58:52.371Z,100561.66
2022-11-27T17:01:21.963Z,100552.72
2022-11-27T17:03:48.945Z,100551.84
2022-11-27T17:06:18.120Z,100544.91
2022-11-27T17:08:44.551Z,100539.66
2022-11-27T17:11:11.816Z,100525.59
2022-11-27T17:13:38.455Z,100519.50
2022-11-27T17:16:06.718Z,100508.00
2022-11-27T17:18:33.212Z,100518.50
2022-11-27T17:21:05.198Z,100517.50
2022-11-27T17:23:31.651Z,100528.94
2022-11-27T17:25:58.071Z,100516.56
2022-11-27T17:28:24.687Z,100532.06
2022-11-27T17:30:51.057Z,100517.28
2022-11-27T17:33:17.412Z,100515.44
2022-11-27T17:35:43.791Z,100502.16
2022-11-27T17:38:10.234Z,100505.94
2022-11-27T17:40:36.792Z,100498.88
2022-11-27T17:43:03.132Z,100499.75
2022-11-27T17:45:29.600Z,100497.94
2022-11-27T17:47:56.004Z,100477.72
2022-11-27T17:50:22.376Z,100477.75
2022-11-27T17:52:52.829Z,100474.16
2022-11-27T17:55:19.264Z,100477.59
2022-11-27T17:57:45.647Z,100473.03
2022-11-27T18:00:12.782Z,100472.16
2022-11-27T18:02:39.246Z,100471.34
2022-11-27T18:05:06.195Z,100467.00
2022-11-27T18:07:32.545Z,100474.06
2022-11-27T18:09:59.197Z,100464.47
2022-11-27T18:12:25.567Z,100460.16
2022-11-27T18:14:56.493Z,100447.97
2022-11-27T18:17:26.002Z,100442.81
2022-11-27T18:19:52.483Z,100448.09
2022-11-27T18:22:19.347Z,100442.59
2022-11-27T18:24:45.984Z,100429.63
2022-11-27T18:27:15.173Z,100429.53
2022-11-27T18:29:44.747Z,100429.50
2022-11-27T18:32:12.710Z,100416.31
2022-11-27T18:34:39.272Z,100418.06
2022-11-27T18:37:06.198Z,100401.44
2022-11-27T18:39:33.300Z,100399.56
2022-11-27T18:41:59.831Z,100401.47
2022-11-27T18:44:26.927Z,100398.88
2022-11-27T18:46:53.357Z,100388.44
2022-11-27T18:49:21.763Z,100399.84
2022-11-27T18:51:49.987Z,100403.22
2022-11-27T18:54:16.524Z,100396.19
2022-11-27T18:56:42.903Z,100391.03
2022-11-27T18:59:09.299Z,100390.16
2022-11-27T19:01:42.060Z,100388.41
2022-11-27T19:04:10.271Z,100389.28
2022-11-27T19:06:37.683Z,100383.22
2022-11-27T19:09:05.743Z,100381.38
2022-11-27T19:11:33.500Z,100382.28
2022-11-27T19:14:00.355Z,100388.34
2022-11-27T19:16:31.215Z,100383.06
2022-11-27T19:18:59.433Z,100384.84
2022-11-27T19:21:28.836Z,100386.53
2022-11-27T19:23:57.425Z,100375.03
2022-11-27T19:26:27.112Z,100364.56
2022-11-27T19:28:55.892Z,100365.63
2022-11-27T19:31:23.727Z,100369.91
2022-11-27T19:33:55.212Z,100355.84
2022-11-27T19:36:23.030Z,100354.09
2022-11-27T19:38:54.870Z,100356.69
2022-11-27T19:41:21.483Z,100367.19
2022-11-27T19:43:48.052Z,100361.81
2022-11-27T19:46:25.266Z,100356.53
2022-11-27T19:48:56.532Z,100360.81
2022-11-27T19:51:23.881Z,100367.69
2022-11-27T19:53:50.733Z,100352.66
2022-11-27T19:56:17.357Z,100340.88
2022-11-27T19:58:43.748Z,100334.81
2022-11-27T20:01:15.380Z,100336.94
2022-11-27T20:04:09.338Z,100340.38
2022-11-27T20:06:54.722Z,100342.28
2022-11-27T20:10:02.876Z,100340.34
2022-11-27T20:13:04.541Z,100333.41
2022-11-27T20:15:44.808Z,100326.50
2022-11-27T20:18:16.235Z,100328.94
2022-11-27T20:21:12.688Z,100343.00
2022-11-27T20:23:43.116Z,100330.47
2022-11-27T20:26:21.770Z,100322.66
2022-11-27T20:29:03.708Z,100333.91
2022-11-27T20:31:43.625Z,100339.44
2022-11-27T20:34:17.635Z,100341.25
2022-11-27T20:36:44.048Z,100341.28
2022-11-27T20:39:12.974Z,100333.50
2022-11-27T20:41:41.588Z,100320.44
2022-11-27T20:44:07.945Z,100315.19
2022-11-27T20:46:34.399Z,100310.75
2022-11-27T20:49:01.064Z,100302.84
2022-11-27T20:51:30.952Z,100300.19
2022-11-27T20:53:59.247Z,100296.66
2022-11-27T20:56:26.445Z,100286.00
2022-11-27T20:58:53.015Z,100281.56
2022-11-27T21:01:21.911Z,100282.56
2022-11-27T21:03:50.556Z,100294.00
2022-11-27T21:06:19.812Z,100276.38
2022-11-27T21:08:46.611Z,100281.63
2022-11-27T21:11:16.119Z,100275.47
2022-11-27T21:13:42.920Z,100276.16
2022-11-27T21:16:11.825Z,100283.13
2022-11-27T21:18:38.679Z,100281.66
2022-11-27T21:21:12.663Z,100279.03
2022-11-27T21:23:40.404Z,100270.06
2022-11-27T21:26:07.735Z,100265.03
2022-11-27T21:28:34.767Z,100266.66
2022-11-27T21:31:09.772Z,100264.88
2022-11-27T21:33:37.059Z,100250.81
2022-11-27T21:36:04.928Z,100240.31
2022-11-27T21:38:31.340Z,100240.25
2022-11-27T21:40:57.698Z,100240.34
2022-11-27T21:43:24.211Z,100247.38
2022-11-27T21:45:50.704Z,100236.81
2022-11-27T21:48:17.503Z,100239.38
2022-11-27T21:50:43.879Z,100240.31
2022-11-27T21:53:10.234Z,100241.00
2022-11-27T21:55:43.214Z,100236.63
2022-11-27T21:58:09.727Z,100241.09
2022-11-27T22:00:36.962Z,100241.16
2022-11-27T22:03:03.637Z,100240.16
2022-11-27T22:05:30.152Z,100237.44
2022-11-27T22:07:56.723Z,100251.47
2022-11-27T22:10:23.292Z,100244.47
2022-11-27T22:12:49.730Z,100241.75
2022-11-27T22:15:18.855Z,100242.53
2022-11-27T22:17:45.304Z,100224.16
2022-11-27T22:20:12.540Z,100220.06
2022-11-27T22:22:38.910Z,100215.69
2022-11-27T22:25:05.812Z,100217.44
2022-11-27T22:27:32.251Z,100211.28
2022-11-27T22:29:58.652Z,100212.16
2022-11-27T22:32:25.135Z,100190.00
2022-11-27T22:34:51.683Z,100203.06
2022-11-27T22:37:18.023Z,100195.41
2022-11-27T22:39:44.551Z,100196.31
2022-11-27T22:42:12.121Z,100200.78
2022-11-27T22:44:38.721Z,100203.34
2022-11-27T22:47:05.248Z,100193.72
2022-11-27T22:49:31.639Z,100185.75
2022-11-27T22:51:58.015Z,100185.63
2022-11-27T22:54:24.568Z,100183.16
2022-11-27T22:56:50.908Z,100180.63
2022-11-27T22:59:32.387Z,100178.84
2022-11-27T23:02:00.236Z,100179.72
2022-11-27T23:04:26.711Z,100173.75
2022-11-27T23:06:53.192Z,100177.31
2022-11-27T23:09:19.663Z,100178.22
2022-11-27T23:11:47.246Z,100172.03
2022-11-27T23:14:13.705Z,100178.13
2022-11-27T23:16:40.162Z,100174.69
2022-11-27T23:19:06.909Z,100177.47
2022-11-27T23:21:37.236Z,100162.56
2022-11-27T23:24:04.888Z,100153.63
2022-11-27T23:26:32.044Z,100152.75
2022-11-27T23:28:58.496Z,100148.44
2022-11-27T23:31:30.729Z,100146.63
2022-11-27T23:33:59.100Z,100143.94
2022-11-27T23:36:25.722Z,100147.47
2022-11-27T23:38:52.284Z,100135.13
2022-11-27T23:41:25.027Z,100134.13
2022-11-27T23:43:52.329Z,100136.72
2022-11-27T23:46:20.638Z,100135.97
2022-11-27T23:48:47.165Z,100141.28
2022-11-27T23:51:19.311Z,100138.75
2022-11-27T23:53:47.063Z,100134.34
2022-11-27T23:56:16.091Z,100143.81
2022-11-27T23:58:46.999Z,100142.19
